Time;durP1;ratioP1;P1;durP2;ratioP2;P2;SDS_P1;SDS_P2;PMS_P1;PMS_P2;Temp;Humidity;BMP_temperature;BMP_pressure;BME280_temperature;BME280_humidity;BME280_pressure;Samples;Min_cycle;Max_cycle;Signal;HPM_P1;HPM_P2
2022/05/14 00:00:59;;;;;;;2.67;2.40;;;;;;;10.18;73.11;98048.28;6251229;22;20027;-79
2022/05/14 00:03:26;;;;;;;2.80;2.60;;;;;;;10.14;73.21;98050.41;6250967;22;20351;-81
2022/05/14 00:05:58;;;;;;;2.45;2.28;;;;;;;10.02;73.46;98053.44;6250615;22;20023;-81
2022/05/14 00:08:24;;;;;;;2.60;2.40;;;;;;;10.10;73.16;98056.19;6277628;22;20451;-79
2022/05/14 00:13:35;;;;;;;2.67;2.47;;;;;;;9.97;73.66;98052.06;6276040;22;20019;-80
2022/05/14 00:16:02;;;;;;;2.47;2.28;;;;;;;9.97;73.58;98056.59;6250713;22;20098;-79
2022/05/14 00:18:29;;;;;;;2.92;2.55;;;;;;;9.91;73.92;98052.66;6276299;22;20024;-80
2022/05/14 00:20:55;;;;;;;2.72;1.73;;;;;;;9.81;73.94;98057.22;6276207;22;20019;-79
2022/05/14 00:23:21;;;;;;;2.60;2.40;;;;;;;10.01;73.88;98057.13;6276246;22;20095;-80
2022/05/14 00:25:48;;;;;;;1.77;1.67;;;;;;;9.96;73.39;98058.38;6250821;22;20020;-79
2022/05/14 00:28:14;;;;;;;2.10;1.90;;;;;;;9.84;73.46;98051.59;6225307;22;20011;-80
2022/05/14 00:30:40;;;;;;;1.95;1.85;;;;;;;9.82;73.79;98074.94;6275923;22;20535;-79
2022/05/14 00:33:07;;;;;;;2.00;1.80;;;;;;;9.87;73.71;98077.97;6224832;22;20107;-80
2022/05/14 00:35:34;;;;;;;3.38;1.90;;;;;;;9.92;73.67;98069.53;6250740;22;20030;-80
2022/05/14 00:38:01;;;;;;;2.35;1.80;;;;;;;10.05;73.60;98079.84;6224929;22;20026;-79
2022/05/14 00:40:40;;;;;;;2.45;1.80;;;;;;;9.94;73.22;98076.41;6276558;22;20019;-79
2022/05/14 00:43:07;;;;;;;;;;;;;;;9.89;73.64;98092.03;6275613;22;20458;-79
2022/05/14 00:45:36;;;;;;;1.67;1.58;;;;;;;9.79;73.84;98095.75;6250385;22;20341;-80
2022/05/14 00:48:03;;;;;;;;;;;;;;;9.87;74.02;98090.50;6277683;22;20340;-80
2022/05/14 00:50:47;;;;;;;3.22;2.22;;;;;;;9.87;73.90;98096.66;6250535;22;19911;-81
2022/05/14 00:53:18;;;;;;;1.92;1.83;;;;;;;9.92;73.77;98083.69;6275540;22;20412;-80
2022/05/14 00:55:48;;;;;;;4.50;1.85;;;;;;;9.86;73.74;98097.66;6250469;22;20034;-81
2022/05/14 00:58:17;;;;;;;;;;;;;;;9.83;74.09;98113.97;6225587;22;20016;-79
2022/05/14 01:00:42;;;;;;;2.17;2.08;;;;;;;9.66;74.21;98090.72;6275957;22;19915;-79
2022/05/14 01:03:08;;;;;;;2.35;2.08;;;;;;;9.71;74.40;98108.00;6276223;22;20066;-79
2022/05/14 01:05:34;;;;;;;2.00;1.90;;;;;;;9.71;74.52;98120.50;6277261;22;20019;-79
2022/05/14 01:08:03;;;;;;;2.53;2.05;;;;;;;9.69;74.57;98123.28;6275795;22;20581;-79
2022/05/14 01:10:36;;;;;;;2.13;1.90;;;;;;;9.71;74.03;98109.81;6250208;22;20019;-79
2022/05/14 01:13:03;;;;;;;1.70;1.60;;;;;;;9.63;74.36;98109.72;6250090;22;20447;-80
2022/05/14 01:15:58;;;;;;;2.30;2.20;;;;;;;9.65;74.30;98129.91;6225357;22;20066;-79
2022/05/14 01:18:29;;;;;;;2.58;1.73;;;;;;;9.66;74.21;98122.75;6247177;22;20355;-79
2022/05/14 01:20:57;;;;;;;2.15;1.90;;;;;;;9.66;73.73;98128.06;6275511;22;20023;-79
2022/05/14 01:26:36;;;;;;;2.25;2.05;;;;;;;9.57;73.65;98144.97;6275946;22;20459;-82
2022/05/14 01:29:19;;;;;;;1.75;1.65;;;;;;;9.53;73.45;98140.91;6251357;22;20026;-78
2022/05/14 01:31:47;;;;;;;2.17;2.03;;;;;;;9.49;73.97;98127.88;6251787;22;20019;-80
2022/05/14 01:34:23;;;;;;;2.00;1.90;;;;;;;9.61;73.63;98138.34;6250275;22;20389;-79
2022/05/14 01:36:50;;;;;;;2.22;2.03;;;;;;;9.56;73.72;98144.13;6275916;22;20367;-78
2022/05/14 01:39:18;;;;;;;2.40;2.20;;;;;;;9.63;73.73;98145.25;6249886;22;20336;-79
2022/05/14 01:41:45;;;;;;;2.50;2.30;;;;;;;9.74;73.18;98160.19;6275566;22;20015;-79
2022/05/14 01:44:12;;;;;;;1.98;1.88;;;;;;;9.69;73.12;98159.81;6224413;22;20031;-79
2022/05/14 01:46:38;;;;;;;3.10;2.25;;;;;;;9.67;73.28;98153.78;6275433;22;20073;-79
2022/05/14 01:49:06;;;;;;;2.60;2.40;;;;;;;9.66;73.25;98160.09;6275402;22;20038;-79
2022/05/14 01:51:32;;;;;;;2.10;2.00;;;;;;;9.69;73.17;98165.97;6277048;22;20455;-79
2022/05/14 01:53:59;;;;;;;4.82;2.78;;;;;;;9.68;72.71;98174.16;6250059;22;20058;-80
2022/05/14 01:56:25;;;;;;;2.33;2.17;;;;;;;9.64;72.89;98178.94;6275299;22;20023;-79
2022/05/14 01:58:52;;;;;;;2.50;2.30;;;;;;;9.65;73.09;98175.28;6249474;22;20360;-80
2022/05/14 02:01:26;;;;;;;6.63;2.25;;;;;;;9.62;73.33;98174.72;6249192;22;20020;-79
2022/05/14 02:04:03;;;;;;;4.75;2.30;;;;;;;9.53;72.99;98172.94;6223940;22;20019;-80
2022/05/14 02:06:30;;;;;;;2.97;2.40;;;;;;;9.58;72.90;98192.00;6250004;22;20024;-79
2022/05/14 02:08:58;;;;;;;2.50;2.30;;;;;;;9.61;72.65;98189.88;6249686;22;20029;-79
2022/05/14 02:11:25;;;;;;;2.60;2.40;;;;;;;9.66;72.62;98194.78;6249437;22;20019;-79
2022/05/14 02:13:58;;;;;;;2.10;2.00;;;;;;;9.42;72.60;98173.94;6251257;22;20019;-79
2022/05/14 02:16:25;;;;;;;3.10;2.33;;;;;;;9.59;72.81;98210.56;6249875;22;20102;-80
2022/05/14 02:18:51;;;;;;;4.35;2.50;;;;;;;9.70;72.67;98204.19;6249617;22;20142;-79
2022/05/14 02:21:24;;;;;;;2.70;2.40;;;;;;;9.65;72.52;98212.63;6249400;22;20024;-79
2022/05/14 02:23:54;;;;;;;2.53;2.33;;;;;;;9.70;72.66;98212.19;6225079;22;20027;-81
2022/05/14 02:26:22;;;;;;;2.65;2.42;;;;;;;9.59;72.40;98217.69;6249632;22;20517;-78
2022/05/14 02:28:49;;;;;;;5.18;2.20;;;;;;;9.53;72.52;98223.63;6223875;22;20015;-80
2022/05/14 02:31:14;;;;;;;2.72;2.53;;;;;;;9.58;72.69;98232.03;6276548;22;20094;-80
2022/05/14 02:33:41;;;;;;;3.20;2.53;;;;;;;9.56;72.73;98228.66;6274669;22;20443;-80
2022/05/14 02:36:08;;;;;;;3.38;2.70;;;;;;;9.65;72.67;98219.78;6249323;22;20077;-80
2022/05/14 02:38:36;;;;;;;3.05;2.70;;;;;;;9.65;72.50;98219.78;6278486;22;19995;-81
2022/05/14 02:41:04;;;;;;;4.65;3.03;;;;;;;9.72;72.55;98232.41;6275885;22;20016;-83
2022/05/14 02:43:32;;;;;;;2.67;2.47;;;;;;;9.93;72.31;98245.56;6250245;22;20477;-89
2022/05/14 02:45:59;;;;;;;3.83;2.73;;;;;;;10.38;71.62;98220.81;6224607;22;20355;-86
2022/05/14 02:48:25;;;;;;;9.77;2.70;;;;;;;10.37;69.87;98245.81;6249173;22;20038;-79
2022/05/14 02:50:52;;;;;;;6.07;2.50;;;;;;;10.42;69.97;98253.41;6275322;22;20081;-80
2022/05/14 02:53:18;;;;;;;5.95;2.42;;;;;;;10.40;69.91;98250.03;6249890;22;20019;-82
2022/05/14 02:55:44;;;;;;;4.47;3.30;;;;;;;10.54;69.65;98256.72;6275693;22;20331;-78
2022/05/14 02:58:10;;;;;;;3.17;2.78;;;;;;;10.58;69.31;98260.78;6249057;22;20039;-79
2022/05/14 03:00:36;;;;;;;2.63;2.42;;;;;;;10.48;69.26;98263.47;6275388;22;20390;-80
2022/05/14 03:03:02;;;;;;;3.20;2.35;;;;;;;10.59;69.17;98275.81;6225478;22;20043;-85
2022/05/14 03:05:29;;;;;;;2.50;2.30;;;;;;;10.47;68.72;98269.00;6249491;22;20027;-80
2022/05/14 03:07:55;;;;;;;2.75;2.53;;;;;;;10.52;68.74;98270.22;6224886;22;20058;-85
2022/05/14 03:10:21;;;;;;;3.75;2.90;;;;;;;10.53;68.88;98271.03;6275871;22;20016;-80
2022/05/14 03:12:48;;;;;;;2.67;2.47;;;;;;;10.58;68.88;98280.31;6276852;22;20020;-87
2022/05/14 03:15:14;;;;;;;2.90;2.70;;;;;;;10.50;69.27;98274.88;6257213;22;20030;-86
2022/05/14 03:17:40;;;;;;;3.53;2.40;;;;;;;10.60;69.07;98277.47;6280211;22;20020;-87
2022/05/14 03:20:10;;;;;;;2.70;2.50;;;;;;;10.74;69.27;98290.34;6282977;22;20102;-79
2022/05/14 03:22:38;;;;;;;2.72;2.53;;;;;;;10.91;68.49;98281.53;6278811;22;20046;-84
2022/05/14 03:25:06;;;;;;;2.25;2.05;;;;;;;10.88;67.08;98265.78;6257270;22;20119;-79
2022/05/14 03:27:32;;;;;;;2.47;2.03;;;;;;;10.99;67.35;98280.78;6284381;22;20016;-82
2022/05/14 03:29:58;;;;;;;3.35;2.53;;;;;;;10.99;67.05;98277.25;6296454;22;20011;-84
2022/05/14 03:32:25;;;;;;;4.07;2.40;;;;;;;11.21;67.07;98298.22;6270079;22;20016;-88
2022/05/14 03:34:54;;;;;;;2.75;2.40;;;;;;;11.30;66.13;98299.13;6259381;22;20097;-84
2022/05/14 03:37:23;;;;;;;2.75;2.33;;;;;;;11.39;66.27;98296.34;6254181;22;20043;-86
2022/05/14 03:39:49;;;;;;;2.67;2.35;;;;;;;11.49;64.65;98303.47;6275722;22;20133;-78
2022/05/14 03:42:15;;;;;;;8.30;2.35;;;;;;;11.23;65.67;98312.25;6275287;22;20023;-82
2022/05/14 03:44:41;;;;;;;3.13;2.72;;;;;;;11.16;65.56;98327.25;6274081;22;20019;-78
2022/05/14 03:47:07;;;;;;;2.50;2.30;;;;;;;11.06;65.91;98334.50;6248212;22;20024;-79
2022/05/14 03:49:33;;;;;;;2.60;2.40;;;;;;;11.12;66.35;98328.53;6247600;22;20065;-80
2022/05/14 03:51:59;;;;;;;2.67;2.45;;;;;;;11.02;66.41;98330.41;6248797;22;20030;-86
2022/05/14 03:54:25;;;;;;;3.28;2.58;;;;;;;10.83;66.97;98342.94;6280601;22;20015;-86
2022/05/14 03:56:51;;;;;;;2.97;2.45;;;;;;;10.66;67.47;98333.03;6226870;22;20011;-84
2022/05/14 03:59:17;;;;;;;3.33;2.60;;;;;;;10.47;67.76;98320.59;6274148;22;20370;-85
2022/05/14 04:01:45;;;;;;;3.22;2.63;;;;;;;10.50;68.01;98325.66;6223738;22;20019;-84
2022/05/14 04:04:11;;;;;;;3.42;2.50;;;;;;;10.59;68.26;98334.59;6275743;22;20016;-87
2022/05/14 04:06:37;;;;;;;2.38;2.17;;;;;;;10.74;68.29;98340.31;6278802;22;20019;-89
2022/05/14 04:09:03;;;;;;;3.35;2.50;;;;;;;10.81;68.14;98336.88;6251104;22;20099;-87
2022/05/14 04:11:29;;;;;;;3.25;2.85;;;;;;;10.82;68.28;98341.22;6250980;22;20398;-87
2022/05/14 04:13:56;;;;;;;6.03;2.30;;;;;;;10.94;68.14;98358.78;6276328;22;20012;-87
2022/05/14 04:16:23;;;;;;;2.45;2.25;;;;;;;10.98;67.42;98340.56;6276503;22;20011;-85
2022/05/14 04:18:49;;;;;;;2.58;2.05;;;;;;;11.02;67.06;98351.81;6250234;22;20016;-86
2022/05/14 04:21:16;;;;;;;5.90;2.08;;;;;;;11.07;66.63;98344.19;6278197;22;20020;-87
2022/05/14 04:23:42;;;;;;;2.70;2.25;;;;;;;10.98;66.31;98345.09;6253693;22;20451;-88
2022/05/14 04:26:09;;;;;;;2.67;2.03;;;;;;;11.25;66.50;98363.78;6278909;22;20039;-82
2022/05/14 04:28:37;;;;;;;2.53;2.03;;;;;;;11.29;66.27;98332.22;6229458;22;20016;-87
2022/05/14 04:31:03;;;;;;;2.88;2.08;;;;;;;11.38;65.88;98358.91;6253365;22;20016;-88
2022/05/14 04:33:31;;;;;;;1.98;1.88;;;;;;;11.51;65.86;98353.19;6255088;22;20027;-85
2022/05/14 04:35:58;;;;;;;2.08;1.88;;;;;;;11.63;66.18;98356.47;6251383;22;20023;-87
2022/05/14 04:38:25;;;;;;;1.90;1.77;;;;;;;11.63;64.88;98359.16;6276451;22;20020;-84
2022/05/14 04:40:51;;;;;;;2.00;1.80;;;;;;;11.55;64.11;98348.38;6251920;22;20027;-88
2022/05/14 04:43:17;;;;;;;1.70;1.60;;;;;;;11.62;63.97;98363.66;6250661;22;20482;-82
2022/05/14 04:45:44;;;;;;;2.80;1.77;;;;;;;11.59;64.33;98341.72;6250889;22;20020;-81
2022/05/14 04:48:12;;;;;;;6.18;2.10;;;;;;;11.91;64.13;98370.63;6249607;22;20362;-81
2022/05/14 04:50:39;;;;;;;2.58;2.00;;;;;;;11.68;63.73;98348.81;6251459;22;20019;-87
2022/05/14 04:53:05;;;;;;;3.00;1.90;;;;;;;11.99;63.91;98370.69;6278450;22;20020;-90
2022/05/14 04:55:32;;;;;;;3.42;2.17;;;;;;;12.03;63.67;98379.25;6252420;22;20016;-81
2022/05/14 04:57:59;;;;;;;2.28;2.10;;;;;;;12.07;64.90;98377.94;6282270;22;20016;-89
2022/05/14 05:00:26;;;;;;;12.57;2.60;;;;;;;12.25;64.48;98370.72;6257756;22;20019;-86
2022/05/14 05:05:37;;;;;;;3.33;2.15;;;;;;;12.88;70.68;98370.38;6252218;22;20443;-83
2022/05/14 05:08:04;;;;;;;3.80;2.20;;;;;;;13.66;69.71;98363.94;6276656;22;20024;-86
2022/05/14 05:10:30;;;;;;;2.10;1.88;;;;;;;14.36;66.24;98357.16;6278072;22;20020;-87
2022/05/14 05:12:56;;;;;;;3.13;1.88;;;;;;;14.13;60.21;98368.63;6226560;22;20026;-84
2022/05/14 05:15:23;;;;;;;3.85;2.05;;;;;;;13.90;59.31;98356.88;6251985;22;20351;-87
2022/05/14 05:17:48;;;;;;;5.40;2.38;;;;;;;13.69;60.13;98352.88;6275051;22;20060;-82
2022/05/14 05:20:14;;;;;;;4.88;2.10;;;;;;;13.69;59.61;98371.66;6278140;22;20020;-82
2022/05/14 05:22:40;;;;;;;5.97;2.30;;;;;;;13.63;59.20;98363.41;6275241;22;20042;-82
2022/05/14 05:25:07;;;;;;;2.55;2.08;;;;;;;13.46;58.96;98367.91;6249445;22;20019;-81
2022/05/14 05:27:33;;;;;;;2.55;2.20;;;;;;;13.59;59.65;98371.81;6225324;22;20015;-87
2022/05/14 05:29:59;;;;;;;2.35;1.70;;;;;;;13.82;59.14;98380.03;6226960;22;20016;-87
2022/05/14 05:32:25;;;;;;;14.00;2.55;;;;;;;13.75;58.41;98376.34;6276630;22;20101;-91
2022/05/14 05:34:51;;;;;;;4.75;1.58;;;;;;;13.64;58.42;98365.94;6278874;22;20023;-86
2022/05/14 05:37:17;;;;;;;8.15;1.90;;;;;;;13.73;57.82;98378.38;6277720;22;20020;-83
2022/05/14 05:39:43;;;;;;;2.05;1.80;;;;;;;13.70;57.07;98381.38;6250381;22;20023;-82
2022/05/14 05:42:09;;;;;;;4.85;1.70;;;;;;;13.81;57.20;98383.75;6275723;22;20015;-80
2022/05/14 05:44:35;;;;;;;4.32;1.70;;;;;;;14.01;58.29;98388.78;6275208;22;20023;-81
2022/05/14 05:47:08;;;;;;;3.95;1.73;;;;;;;14.05;58.26;98388.28;6249560;22;20020;-80
2022/05/14 05:49:37;;;;;;;5.18;1.83;;;;;;;14.26;57.05;98376.19;6249118;22;20020;-81
2022/05/14 05:52:03;;;;;;;4.57;1.70;;;;;;;14.62;56.31;98382.03;6250148;22;20090;-80
2022/05/14 05:57:13;;;;;;;2.38;1.77;;;;;;;14.92;55.17;98380.41;6276904;22;20342;-83
2022/05/14 05:59:39;;;;;;;2.60;1.63;;;;;;;15.07;55.30;98381.34;6224293;22;20015;-86
2022/05/14 06:02:06;;;;;;;4.75;1.80;;;;;;;15.27;55.43;98376.41;6252128;22;20015;-80
2022/05/14 06:04:32;;;;;;;3.53;1.90;;;;;;;15.49;54.51;98363.13;6224823;22;20011;-82
2022/05/14 06:06:58;;;;;;;8.75;1.48;;;;;;;15.22;54.15;98364.47;6256178;22;20133;-83
2022/05/14 06:09:26;;;;;;;3.03;1.60;;;;;;;15.42;54.43;98376.50;6237668;22;20030;-84
2022/05/14 06:11:53;;;;;;;2.08;1.25;;;;;;;15.37;51.44;98375.34;6277579;22;20080;-85
2022/05/14 06:14:19;;;;;;;2.92;1.75;;;;;;;15.56;51.04;98369.50;6226884;22;20020;-89
2022/05/14 06:16:45;;;;;;;2.72;1.45;;;;;;;15.54;51.58;98366.16;6279028;22;20016;-85
2022/05/14 06:19:11;;;;;;;2.05;1.50;;;;;;;15.72;51.73;98369.44;6277139;22;20019;-88
2022/05/14 06:21:38;;;;;;;2.80;1.52;;;;;;;15.70;51.22;98387.63;6224591;22;20012;-87
2022/05/14 06:24:07;;;;;;;6.00;1.20;;;;;;;15.88;50.71;98378.41;6250897;22;20033;-84
2022/05/14 06:26:33;;;;;;;6.80;1.73;;;;;;;16.36;49.63;98376.28;6276134;22;20015;-84
2022/05/14 06:29:02;;;;;;;4.57;1.30;;;;;;;16.55;48.92;98364.13;6252301;22;20023;-86
2022/05/14 06:31:28;;;;;;;2.15;1.27;;;;;;;16.71;48.18;98381.00;6261674;22;20046;-83
2022/05/14 06:33:53;;;;;;;6.00;1.80;;;;;;;16.85;47.48;98376.66;6292835;22;20020;-84
2022/05/14 06:36:20;;;;;;;2.03;1.20;;;;;;;16.82;45.12;98377.03;6263191;22;20351;-82
2022/05/14 06:38:46;;;;;;;5.22;1.48;;;;;;;16.96;45.23;98380.72;6257776;22;20012;-84
2022/05/14 06:41:14;;;;;;;2.65;1.13;;;;;;;16.65;44.29;98381.72;6279612;22;20065;-81
2022/05/14 06:43:41;;;;;;;2.33;1.27;;;;;;;16.36;45.14;98397.88;6276793;22;20022;-84
2022/05/14 06:46:08;;;;;;;2.63;1.10;;;;;;;16.31;45.48;98394.88;6277997;22;20026;-83
2022/05/14 06:48:34;;;;;;;4.15;1.25;;;;;;;16.74;46.40;98372.56;6275465;22;20020;-83
2022/05/14 06:51:30;;;;;;;3.88;1.20;;;;;;;16.94;45.21;98388.19;6279049;22;20026;-92
2022/05/14 06:54:01;;;;;;;5.50;1.15;;;;;;;16.75;46.40;98381.50;6276269;22;20035;-87
2022/05/14 06:56:28;;;;;;;1.63;1.30;;;;;;;16.92;45.61;98398.34;6250349;22;20027;-86
2022/05/14 06:58:55;;;;;;;1.90;1.30;;;;;;;16.59;45.64;98393.28;6280803;22;20077;-87
2022/05/14 07:01:21;;;;;;;5.22;1.48;;;;;;;16.81;46.27;98396.09;6250235;22;20031;-90
2022/05/14 07:06:38;;;;;;;5.10;1.48;;;;;;;17.56;44.67;98395.00;6276751;22;20024;-92
2022/05/14 07:09:27;;;;;;;1.20;1.00;;;;;;;17.78;43.95;98404.84;6249143;22;20011;-83
2022/05/14 07:11:59;;;;;;;4.18;1.30;;;;;;;17.31;41.09;98416.13;6274697;22;20134;-85
2022/05/14 07:14:27;;;;;;;1.95;1.08;;;;;;;17.36;40.73;98401.00;6223609;22;20119;-86
2022/05/14 07:16:54;;;;;;;1.10;0.80;;;;;;;17.63;39.06;98390.50;6222730;22;20024;-86
2022/05/14 07:19:21;;;;;;;1.75;0.80;;;;;;;17.61;39.88;98404.22;6248655;22;20019;-84
2022/05/14 07:21:48;;;;;;;2.63;0.93;;;;;;;17.58;38.85;98396.47;6276253;22;20023;-86
2022/05/14 07:24:26;;;;;;;5.53;0.80;;;;;;;17.78;36.77;98406.69;6224190;22;20097;-85
2022/05/14 07:26:54;;;;;;;0.73;0.73;;;;;;;17.61;37.67;98397.97;6276173;22;20050;-85
2022/05/14 07:29:24;;;;;;;0.82;0.82;;;;;;;17.69;38.13;98398.69;6276366;22;20023;-87
2022/05/14 07:31:51;;;;;;;2.50;1.00;;;;;;;17.96;38.11;98399.00;6223232;22;20408;-85
2022/05/14 07:34:17;;;;;;;1.65;0.70;;;;;;;18.34;37.18;98404.94;6276265;22;20023;-86
2022/05/14 07:36:55;;;;;;;1.10;0.90;;;;;;;17.93;37.36;98407.47;6249932;22;20387;-87
2022/05/14 07:39:25;;;;;;;1.03;0.90;;;;;;;17.93;37.57;98394.78;6274143;22;20018;-86
2022/05/14 07:41:54;;;;;;;4.65;0.77;;;;;;;18.21;38.32;98404.84;6224484;22;20039;-86
2022/05/14 07:44:25;;;;;;;4.22;1.88;;;;;;;18.38;37.10;98408.09;6226119;22;20018;-85
2022/05/14 07:46:53;;;;;;;0.77;0.77;;;;;;;18.17;37.17;98395.47;6250900;22;20012;-86
2022/05/14 07:49:22;;;;;;;2.75;0.80;;;;;;;18.18;37.54;98389.84;6252194;22;20504;-86
2022/05/14 07:51:48;;;;;;;0.93;0.68;;;;;;;18.28;37.88;98402.19;6277493;22;20019;-86
2022/05/14 07:54:14;;;;;;;4.18;0.90;;;;;;;18.24;37.71;98377.41;6277083;22;20363;-83
2022/05/14 07:56:42;;;;;;;0.95;0.93;;;;;;;18.43;38.03;98395.69;6226145;22;20016;-83
2022/05/14 07:59:08;;;;;;;2.03;0.77;;;;;;;18.94;36.36;98405.41;6277715;22;20015;-83
2022/05/14 08:01:35;;;;;;;1.15;0.88;;;;;;;19.42;35.98;98400.88;6228426;22;20073;-84
2022/05/14 08:04:02;;;;;;;2.58;0.63;;;;;;;20.14;34.86;98375.00;6277240;22;20019;-82
2022/05/14 08:06:28;;;;;;;3.28;0.80;;;;;;;20.36;32.75;98399.22;6277528;22;20141;-85
2022/05/14 08:08:56;;;;;;;1.33;0.50;;;;;;;20.23;32.24;98396.50;6257394;22;20047;-87
2022/05/14 08:11:26;;;;;;;3.22;0.75;;;;;;;19.60;32.50;98384.06;6256614;22;20012;-88
2022/05/14 08:13:54;;;;;;;0.60;0.60;;;;;;;19.12;32.93;98392.19;6301613;22;20019;-88
2022/05/14 08:16:22;;;;;;;3.10;1.00;;;;;;;18.71;34.24;98399.44;6285625;22;20018;-88
2022/05/14 08:18:48;;;;;;;5.63;0.80;;;;;;;18.09;36.74;98412.66;6284664;22;20045;-87
2022/05/14 08:26:52;;;;;;;2.35;0.90;;;;;;;17.70;39.83;98411.16;6256564;22;20452;-87
2022/05/14 08:29:19;;;;;;;3.85;1.00;;;;;;;17.94;39.62;98406.44;6206771;22;20059;-87
2022/05/14 08:31:46;;;;;;;9.77;0.90;;;;;;;18.48;38.36;98407.78;6256632;22;20052;-87
2022/05/14 08:34:15;;;;;;;1.30;1.00;;;;;;;18.85;38.44;98402.03;6255873;22;20011;-85
2022/05/14 08:36:42;;;;;;;1.83;1.00;;;;;;;18.97;38.89;98399.59;6308395;22;20118;-86
2022/05/14 08:39:07;;;;;;;2.03;1.02;;;;;;;19.47;36.94;98400.25;6256388;22;20030;-86
2022/05/14 08:41:40;;;;;;;1.15;0.80;;;;;;;19.38;35.97;98368.97;6281858;22;20047;-86
2022/05/14 08:44:16;;;;;;;3.88;0.88;;;;;;;19.80;36.65;98394.97;6256533;22;20065;-87
2022/05/14 08:46:43;;;;;;;1.10;1.00;;;;;;;19.92;34.61;98392.50;6257961;22;20026;-87
2022/05/14 08:49:20;;;;;;;2.30;1.02;;;;;;;19.69;33.86;98401.00;6282418;22;20060;-86
2022/05/14 08:51:49;;;;;;;3.17;0.70;;;;;;;19.08;34.96;98401.75;6311215;22;20058;-87
2022/05/14 08:54:16;;;;;;;7.60;1.38;;;;;;;18.61;37.73;98422.22;6256365;22;20073;-87
2022/05/14 08:56:45;;;;;;;3.33;1.20;;;;;;;18.44;38.95;98437.94;6255253;22;20023;-87
2022/05/14 08:59:40;;;;;;;4.47;0.82;;;;;;;17.88;38.23;98415.34;6255672;22;20106;-87
2022/05/14 09:02:22;;;;;;;3.58;0.70;;;;;;;17.20;39.33;98391.25;6231990;22;20339;-85
2022/05/14 09:04:50;;;;;;;4.93;0.80;;;;;;;17.39;39.76;98406.03;6256428;22;20122;-86
2022/05/14 09:07:18;;;;;;;6.05;0.90;;;;;;;17.63;39.29;98391.34;6310452;22;20030;-85
2022/05/14 09:09:53;;;;;;;2.13;0.88;;;;;;;17.84;38.24;98389.72;6230514;22;20037;-84
2022/05/14 09:12:26;;;;;;;2.13;0.73;;;;;;;17.85;37.19;98375.16;6229938;22;20015;-82
2022/05/14 09:14:56;;;;;;;1.55;0.80;;;;;;;17.97;37.70;98376.31;6230614;22;20153;-84
2022/05/14 09:17:27;;;;;;;1.20;0.63;;;;;;;18.32;37.28;98368.31;6255745;22;20015;-84
2022/05/14 09:19:54;;;;;;;3.92;0.60;;;;;;;18.52;36.84;98363.88;6255255;22;20011;-84
2022/05/14 09:22:44;;;;;;;5.32;1.25;;;;;;;19.05;36.15;98347.16;6280867;22;20018;-83
2022/05/14 09:25:31;;;;;;;6.43;1.33;;;;;;;19.45;36.32;98363.56;6257477;22;20022;-81
2022/05/14 09:28:01;;;;;;;5.20;1.35;;;;;;;20.29;35.02;98371.25;6231578;22;20423;-83
2022/05/14 09:30:27;;;;;;;2.50;1.20;;;;;;;20.85;34.43;98365.38;6254751;22;20030;-81
2022/05/14 09:32:53;;;;;;;6.03;1.42;;;;;;;21.42;33.65;98358.28;6255648;22;20026;-80
2022/05/14 09:35:27;;;;;;;5.07;0.98;;;;;;;21.86;32.60;98347.59;6280821;22;20043;-78
2022/05/14 09:38:10;;;;;;;1.30;0.85;;;;;;;22.53;32.72;98351.50;6280994;22;20038;-82
2022/05/14 09:40:38;;;;;;;12.98;1.20;;;;;;;23.25;32.02;98349.06;6230057;22;20456;-82
2022/05/14 09:43:30;;;;;;;3.78;1.20;;;;;;;23.83;31.41;98353.13;6316083;22;20042;-84
2022/05/14 09:45:56;;;;;;;4.22;1.30;;;;;;;23.98;30.59;98354.34;6285228;22;20124;-83
2022/05/14 09:48:30;;;;;;;3.55;1.13;;;;;;;23.39;30.16;98344.25;6307897;22;20025;-79
2022/05/14 09:50:59;;;;;;;3.40;1.27;;;;;;;21.88;31.88;98332.69;6254598;22;20439;-83
2022/05/14 09:53:40;;;;;;;7.30;1.50;;;;;;;21.74;33.16;98347.44;6279982;22;20016;-82
2022/05/14 09:56:46;;;;;;;6.55;1.80;;;;;;;22.01;33.69;98362.56;6254823;22;20118;-82
2022/05/14 09:59:45;;;;;;;5.45;1.45;;;;;;;22.51;32.18;98348.13;6280199;22;20050;-83
2022/05/14 10:02:19;;;;;;;;;;;;;;;22.40;32.08;98355.16;6307449;22;20030;-82
2022/05/14 10:05:32;;;;;;;4.65;1.33;;;;;;;21.90;30.37;98362.44;6255930;22;19938;-82
2022/05/14 10:08:12;;;;;;;1.30;1.20;;;;;;;21.68;32.03;98356.50;6163091;22;20042;-82
2022/05/14 10:10:54;;;;;;;2.20;1.00;;;;;;;21.80;31.51;98346.56;6229573;22;20027;-82
2022/05/14 10:13:51;;;;;;;3.42;1.20;;;;;;;22.47;31.64;98357.81;6227992;22;20022;-81
2022/05/14 10:16:35;;;;;;;4.18;1.20;;;;;;;22.33;29.56;98350.81;6286126;22;20026;-83
2022/05/14 10:19:40;;;;;;;0.70;0.70;;;;;;;22.48;29.24;98335.78;6280413;22;20020;-82
2022/05/14 10:22:16;;;;;;;4.22;0.80;;;;;;;22.65;30.14;98337.97;6307758;22;20019;-83
2022/05/14 10:27:58;;;;;;;2.08;1.30;;;;;;;21.65;29.84;98337.88;6279259;22;20109;-82
2022/05/14 10:30:30;;;;;;;1.92;1.20;;;;;;;21.42;30.46;98339.25;6280554;22;20054;-82
2022/05/14 10:33:02;;;;;;;1.95;0.82;;;;;;;21.08;30.78;98343.97;6228946;22;20057;-83
2022/05/14 10:35:40;;;;;;;4.07;1.00;;;;;;;20.58;31.30;98338.25;6254772;22;20434;-82
2022/05/14 10:38:17;;;;;;;6.40;1.23;;;;;;;21.12;30.37;98343.53;6255097;22;20019;-80
2022/05/14 10:40:58;;;;;;;0.90;0.82;;;;;;;21.86;29.11;98328.56;6303751;22;20023;-81
2022/05/14 10:43:43;;;;;;;1.10;0.70;;;;;;;21.86;28.97;98334.81;6253931;22;20030;-84
2022/05/14 10:46:14;;;;;;;2.63;0.98;;;;;;;22.96;28.21;98321.50;6253868;22;20023;-85
2022/05/14 10:48:59;;;;;;;3.17;1.02;;;;;;;22.90;27.20;98330.53;6308371;22;20015;-84
2022/05/14 10:51:49;;;;;;;2.45;1.20;;;;;;;23.27;26.93;98347.75;6307426;22;20019;-81
2022/05/14 10:54:17;;;;;;;1.85;1.55;;;;;;;23.65;26.03;98340.34;6228858;22;20018;-82
2022/05/14 10:56:57;;;;;;;1.33;1.05;;;;;;;23.50;26.35;98349.75;6229336;22;20016;-84
2022/05/14 10:59:44;;;;;;;2.53;0.98;;;;;;;22.81;27.12;98329.19;6231803;22;20101;-83
2022/05/14 11:02:24;;;;;;;1.48;1.30;;;;;;;23.78;26.83;98326.53;6281519;22;20026;-83
2022/05/14 11:04:51;;;;;;;5.80;2.00;;;;;;;25.58;25.18;98316.75;6280953;22;20098;-84
2022/05/14 11:07:29;;;;;;;3.40;1.05;;;;;;;26.55;22.32;98314.84;6254852;22;20054;-83
2022/05/14 11:10:16;;;;;;;1.63;0.80;;;;;;;26.80;22.42;98319.88;6229279;22;20015;-83
2022/05/14 11:12:42;;;;;;;1.65;0.73;;;;;;;26.16;23.18;98331.22;6306689;22;20097;-82
2022/05/14 11:15:29;;;;;;;1.10;1.00;;;;;;;24.87;24.94;98323.47;6256662;22;20019;-83
2022/05/14 11:18:11;;;;;;;4.00;1.80;;;;;;;25.29;23.81;98337.78;6232181;22;20096;-83
2022/05/14 11:20:39;;;;;;;3.47;1.42;;;;;;;26.53;23.72;98325.25;6282322;22;20346;-84
2022/05/14 11:23:13;;;;;;;7.03;1.10;;;;;;;27.39;21.99;98330.28;6282750;22;20014;-84
2022/05/14 11:25:39;;;;;;;9.43;1.00;;;;;;;27.45;21.74;98337.47;6283267;22;20019;-83
2022/05/14 11:28:12;;;;;;;4.68;1.00;;;;;;;27.46;21.35;98334.50;6283718;22;20027;-83
2022/05/14 11:30:45;;;;;;;1.73;0.80;;;;;;;27.66;21.32;98331.16;6256820;22;20041;-83
2022/05/14 11:33:24;;;;;;;5.93;0.80;;;;;;;26.13;22.85;98342.66;6280815;22;20029;-83
2022/05/14 11:36:11;;;;;;;10.02;1.52;;;;;;;26.00;23.47;98345.72;6256189;22;20063;-83
2022/05/14 11:38:41;;;;;;;2.42;1.30;;;;;;;27.02;22.34;98344.59;6253502;22;20019;-84
2022/05/14 11:41:29;;;;;;;8.52;1.40;;;;;;;27.47;21.87;98338.06;6280931;22;20461;-83
2022/05/14 11:43:56;;;;;;;3.72;1.30;;;;;;;26.86;22.46;98336.16;6230176;22;20043;-84
2022/05/14 11:46:28;;;;;;;3.58;1.58;;;;;;;26.60;23.26;98336.88;6256137;22;20346;-83
2022/05/14 11:49:06;;;;;;;7.18;0.95;;;;;;;26.80;22.11;98337.16;6257178;22;20015;-84
2022/05/14 11:51:39;;;;;;;;;;;;;;;26.61;22.36;98335.78;6283858;22;20455;-83
2022/05/14 11:54:12;;;;;;;5.38;0.75;;;;;;;26.75;22.87;98328.88;6282036;22;19911;-83
2022/05/14 11:57:09;;;;;;;1.60;0.93;;;;;;;27.05;22.46;98324.91;6230986;22;20116;-83
2022/05/14 11:59:57;;;;;;;4.63;1.38;;;;;;;28.26;20.99;98343.84;6230563;22;20363;-82
2022/05/14 12:02:42;;;;;;;5.05;0.73;;;;;;;29.37;20.24;98341.28;6256338;22;20015;-84
2022/05/14 12:05:20;;;;;;;2.40;0.80;;;;;;;30.23;19.43;98344.28;6231363;22;20339;-85
2022/05/14 12:07:46;;;;;;;5.28;1.02;;;;;;;30.52;19.56;98340.97;6208035;22;20015;-83
2022/05/14 12:10:42;;;;;;;1.00;0.90;;;;;;;29.74;18.89;98344.72;6282065;22;20068;-84
2022/05/14 12:13:33;;;;;;;3.75;0.70;;;;;;;28.91;19.10;98347.34;6255293;22;20027;-84
2022/05/14 12:16:00;;;;;;;5.40;1.35;;;;;;;27.47;21.05;98340.81;6281675;22;20351;-83